sensor_id;sensor_type;location;lat;lon;timestamp;P1;durP1;ratioP1;P2;durP2;ratioP2
11847;SDS011;5983;49.966;8.052;2022-08-19T00:00:51;11.57;;;10.37;;
11847;SDS011;5983;49.966;8.052;2022-08-19T00:03:17;12.63;;;11.30;;
11847;SDS011;5983;49.966;8.052;2022-08-19T00:05:44;11.77;;;10.67;;
11847;SDS011;5983;49.966;8.052;2022-08-19T00:08:11;12.00;;;10.70;;
11847;SDS011;5983;49.966;8.052;2022-08-19T00:10:38;12.40;;;11.10;;
11847;SDS011;5983;49.966;8.052;2022-08-19T00:13:07;12.50;;;11.20;;
11847;SDS011;5983;49.966;8.052;2022-08-19T00:15:34;14.13;;;10.93;;
11847;SDS011;5983;49.966;8.052;2022-08-19T00:18:01;12.00;;;10.77;;
11847;SDS011;5983;49.966;8.052;2022-08-19T00:20:29;11.90;;;10.80;;
11847;SDS011;5983;49.966;8.052;2022-08-19T00:22:55;13.53;;;11.03;;
11847;SDS011;5983;49.966;8.052;2022-08-19T00:25:23;12.53;;;11.03;;
11847;SDS011;5983;49.966;8.052;2022-08-19T00:27:49;13.23;;;10.73;;
11847;SDS011;5983;49.966;8.052;2022-08-19T00:30:18;14.00;;;11.67;;
11847;SDS011;5983;49.966;8.052;2022-08-19T00:32:45;12.13;;;10.93;;
11847;SDS011;5983;49.966;8.052;2022-08-19T00:35:12;12.43;;;11.13;;
11847;SDS011;5983;49.966;8.052;2022-08-19T00:37:39;12.07;;;10.87;;
11847;SDS011;5983;49.966;8.052;2022-08-19T00:40:08;12.60;;;11.40;;
11847;SDS011;5983;49.966;8.052;2022-08-19T00:42:38;13.63;;;11.87;;
11847;SDS011;5983;49.966;8.052;2022-08-19T00:45:09;12.17;;;10.97;;
11847;SDS011;5983;49.966;8.052;2022-08-19T00:47:43;12.17;;;10.87;;
11847;SDS011;5983;49.966;8.052;2022-08-19T00:50:11;12.40;;;11.17;;
11847;SDS011;5983;49.966;8.052;2022-08-19T00:52:43;12.40;;;11.17;;
11847;SDS011;5983;49.966;8.052;2022-08-19T00:55:14;14.47;;;11.60;;
11847;SDS011;5983;49.966;8.052;2022-08-19T00:57:48;12.93;;;11.63;;
11847;SDS011;5983;49.966;8.052;2022-08-19T01:00:19;12.43;;;11.13;;
11847;SDS011;5983;49.966;8.052;2022-08-19T01:02:50;12.43;;;11.27;;
11847;SDS011;5983;49.966;8.052;2022-08-19T01:05:20;15.20;;;11.30;;
11847;SDS011;5983;49.966;8.052;2022-08-19T01:07:52;11.63;;;10.60;;
11847;SDS011;5983;49.966;8.052;2022-08-19T01:10:22;12.03;;;10.83;;
11847;SDS011;5983;49.966;8.052;2022-08-19T01:12:54;13.60;;;10.93;;
11847;SDS011;5983;49.966;8.052;2022-08-19T01:15:25;12.37;;;10.83;;
11847;SDS011;5983;49.966;8.052;2022-08-19T01:18:00;15.20;;;11.70;;
11847;SDS011;5983;49.966;8.052;2022-08-19T01:20:32;13.53;;;11.63;;
11847;SDS011;5983;49.966;8.052;2022-08-19T01:23:01;13.43;;;12.03;;
11847;SDS011;5983;49.966;8.052;2022-08-19T01:25:30;12.57;;;10.43;;
11847;SDS011;5983;49.966;8.052;2022-08-19T01:28:02;12.60;;;11.40;;
11847;SDS011;5983;49.966;8.052;2022-08-19T01:30:32;12.43;;;11.23;;
11847;SDS011;5983;49.966;8.052;2022-08-19T01:33:01;13.03;;;11.67;;
11847;SDS011;5983;49.966;8.052;2022-08-19T01:35:30;11.93;;;10.67;;
11847;SDS011;5983;49.966;8.052;2022-08-19T01:37:59;12.33;;;11.10;;
11847;SDS011;5983;49.966;8.052;2022-08-19T01:40:34;12.80;;;11.50;;
11847;SDS011;5983;49.966;8.052;2022-08-19T01:43:05;11.97;;;10.77;;
11847;SDS011;5983;49.966;8.052;2022-08-19T01:45:33;13.03;;;11.37;;
11847;SDS011;5983;49.966;8.052;2022-08-19T01:48:05;11.93;;;10.77;;
11847;SDS011;5983;49.966;8.052;2022-08-19T01:50:33;12.67;;;11.50;;
11847;SDS011;5983;49.966;8.052;2022-08-19T01:53:03;11.60;;;10.40;;
11847;SDS011;5983;49.966;8.052;2022-08-19T01:55:36;11.83;;;10.73;;
11847;SDS011;5983;49.966;8.052;2022-08-19T01:58:08;11.93;;;10.63;;
11847;SDS011;5983;49.966;8.052;2022-08-19T02:00:41;12.50;;;10.70;;
11847;SDS011;5983;49.966;8.052;2022-08-19T02:03:10;11.70;;;10.60;;
11847;SDS011;5983;49.966;8.052;2022-08-19T02:05:37;12.90;;;11.60;;
11847;SDS011;5983;49.966;8.052;2022-08-19T02:08:07;13.07;;;10.53;;
11847;SDS011;5983;49.966;8.052;2022-08-19T02:10:37;12.07;;;10.97;;
11847;SDS011;5983;49.966;8.052;2022-08-19T02:13:06;12.40;;;11.10;;
11847;SDS011;5983;49.966;8.052;2022-08-19T02:15:34;12.67;;;10.63;;
11847;SDS011;5983;49.966;8.052;2022-08-19T02:18:01;11.33;;;10.23;;
11847;SDS011;5983;49.966;8.052;2022-08-19T02:20:28;11.43;;;10.30;;
11847;SDS011;5983;49.966;8.052;2022-08-19T02:22:55;11.60;;;10.40;;
11847;SDS011;5983;49.966;8.052;2022-08-19T02:25:26;12.30;;;11.07;;
11847;SDS011;5983;49.966;8.052;2022-08-19T02:27:53;11.50;;;10.30;;
11847;SDS011;5983;49.966;8.052;2022-08-19T02:30:20;13.43;;;10.87;;
11847;SDS011;5983;49.966;8.052;2022-08-19T02:32:49;11.07;;;10.00;;
11847;SDS011;5983;49.966;8.052;2022-08-19T02:35:16;11.63;;;10.53;;
11847;SDS011;5983;49.966;8.052;2022-08-19T02:37:44;12.40;;;11.20;;
11847;SDS011;5983;49.966;8.052;2022-08-19T02:40:35;12.27;;;10.93;;
11847;SDS011;5983;49.966;8.052;2022-08-19T02:43:02;11.43;;;10.27;;
11847;SDS011;5983;49.966;8.052;2022-08-19T02:45:32;11.13;;;10.03;;
11847;SDS011;5983;49.966;8.052;2022-08-19T02:48:00;11.30;;;10.20;;
11847;SDS011;5983;49.966;8.052;2022-08-19T02:50:27;11.70;;;10.07;;
11847;SDS011;5983;49.966;8.052;2022-08-19T02:52:54;10.93;;;9.83;;
11847;SDS011;5983;49.966;8.052;2022-08-19T02:55:21;11.40;;;10.20;;
11847;SDS011;5983;49.966;8.052;2022-08-19T02:57:50;12.90;;;10.37;;
11847;SDS011;5983;49.966;8.052;2022-08-19T03:00:17;11.43;;;10.33;;
11847;SDS011;5983;49.966;8.052;2022-08-19T03:02:44;11.57;;;10.37;;
11847;SDS011;5983;49.966;8.052;2022-08-19T03:05:11;11.67;;;10.50;;
11847;SDS011;5983;49.966;8.052;2022-08-19T03:07:38;11.80;;;10.60;;
11847;SDS011;5983;49.966;8.052;2022-08-19T03:10:05;10.97;;;9.73;;
11847;SDS011;5983;49.966;8.052;2022-08-19T03:12:34;12.60;;;10.50;;
11847;SDS011;5983;49.966;8.052;2022-08-19T03:15:05;11.23;;;10.10;;
11847;SDS011;5983;49.966;8.052;2022-08-19T03:17:33;12.53;;;10.27;;
11847;SDS011;5983;49.966;8.052;2022-08-19T03:20:01;12.17;;;10.63;;
11847;SDS011;5983;49.966;8.052;2022-08-19T03:22:30;11.43;;;10.33;;
11847;SDS011;5983;49.966;8.052;2022-08-19T03:24:57;11.47;;;10.27;;
11847;SDS011;5983;49.966;8.052;2022-08-19T03:27:25;11.70;;;10.00;;
11847;SDS011;5983;49.966;8.052;2022-08-19T03:29:52;12.17;;;10.90;;
11847;SDS011;5983;49.966;8.052;2022-08-19T03:32:20;11.50;;;10.40;;
11847;SDS011;5983;49.966;8.052;2022-08-19T03:34:47;11.30;;;10.20;;
11847;SDS011;5983;49.966;8.052;2022-08-19T03:37:15;12.07;;;10.80;;
11847;SDS011;5983;49.966;8.052;2022-08-19T03:39:42;10.87;;;9.77;;
11847;SDS011;5983;49.966;8.052;2022-08-19T03:42:10;11.37;;;10.10;;
11847;SDS011;5983;49.966;8.052;2022-08-19T03:44:37;11.10;;;10.00;;
11847;SDS011;5983;49.966;8.052;2022-08-19T03:47:04;11.10;;;9.93;;
11847;SDS011;5983;49.966;8.052;2022-08-19T03:49:33;10.67;;;9.33;;
11847;SDS011;5983;49.966;8.052;2022-08-19T03:52:01;11.30;;;10.20;;
11847;SDS011;5983;49.966;8.052;2022-08-19T03:54:32;11.53;;;10.33;;
11847;SDS011;5983;49.966;8.052;2022-08-19T03:56:59;12.03;;;10.40;;
11847;SDS011;5983;49.966;8.052;2022-08-19T03:59:28;11.67;;;10.30;;
11847;SDS011;5983;49.966;8.052;2022-08-19T04:01:59;10.83;;;9.73;;
11847;SDS011;5983;49.966;8.052;2022-08-19T04:04:35;12.20;;;10.33;;
11847;SDS011;5983;49.966;8.052;2022-08-19T04:07:03;11.70;;;10.57;;
11847;SDS011;5983;49.966;8.052;2022-08-19T04:09:31;12.63;;;10.20;;
11847;SDS011;5983;49.966;8.052;2022-08-19T04:12:01;13.13;;;11.47;;
11847;SDS011;5983;49.966;8.052;2022-08-19T04:14:31;11.30;;;9.70;;
11847;SDS011;5983;49.966;8.052;2022-08-19T04:16:59;14.50;;;10.60;;
11847;SDS011;5983;49.966;8.052;2022-08-19T04:19:29;11.57;;;10.37;;
11847;SDS011;5983;49.966;8.052;2022-08-19T04:21:58;11.93;;;10.83;;
11847;SDS011;5983;49.966;8.052;2022-08-19T04:24:25;11.60;;;10.40;;
11847;SDS011;5983;49.966;8.052;2022-08-19T04:26:53;11.87;;;10.60;;
11847;SDS011;5983;49.966;8.052;2022-08-19T04:29:22;11.67;;;10.57;;
11847;SDS011;5983;49.966;8.052;2022-08-19T04:31:51;11.73;;;9.93;;
11847;SDS011;5983;49.966;8.052;2022-08-19T04:34:21;11.90;;;10.70;;
11847;SDS011;5983;49.966;8.052;2022-08-19T04:36:51;11.73;;;10.60;;
11847;SDS011;5983;49.966;8.052;2022-08-19T04:39:22;11.90;;;10.90;;
11847;SDS011;5983;49.966;8.052;2022-08-19T04:42:12;10.97;;;9.97;;
11847;SDS011;5983;49.966;8.052;2022-08-19T04:44:57;12.17;;;10.57;;
11847;SDS011;5983;49.966;8.052;2022-08-19T04:47:24;12.57;;;10.87;;
11847;SDS011;5983;49.966;8.052;2022-08-19T04:49:51;11.10;;;10.00;;
11847;SDS011;5983;49.966;8.052;2022-08-19T04:52:18;12.43;;;10.07;;
11847;SDS011;5983;49.966;8.052;2022-08-19T04:54:46;11.33;;;10.00;;
11847;SDS011;5983;49.966;8.052;2022-08-19T04:57:13;12.50;;;10.37;;
11847;SDS011;5983;49.966;8.052;2022-08-19T04:59:40;10.83;;;9.83;;
11847;SDS011;5983;49.966;8.052;2022-08-19T05:02:08;10.77;;;9.67;;
11847;SDS011;5983;49.966;8.052;2022-08-19T05:04:36;10.50;;;9.23;;
11847;SDS011;5983;49.966;8.052;2022-08-19T05:07:04;10.47;;;9.20;;
11847;SDS011;5983;49.966;8.052;2022-08-19T05:09:32;11.97;;;10.77;;
11847;SDS011;5983;49.966;8.052;2022-08-19T05:12:00;12.60;;;10.13;;
11847;SDS011;5983;49.966;8.052;2022-08-19T05:14:27;11.53;;;10.03;;
11847;SDS011;5983;49.966;8.052;2022-08-19T05:16:54;11.03;;;9.03;;
11847;SDS011;5983;49.966;8.052;2022-08-19T05:19:21;12.73;;;10.07;;
11847;SDS011;5983;49.966;8.052;2022-08-19T05:22:06;10.73;;;9.53;;
11847;SDS011;5983;49.966;8.052;2022-08-19T05:24:50;10.00;;;9.00;;
11847;SDS011;5983;49.966;8.052;2022-08-19T05:27:18;9.50;;;8.50;;
11847;SDS011;5983;49.966;8.052;2022-08-19T05:29:45;9.40;;;8.50;;
11847;SDS011;5983;49.966;8.052;2022-08-19T05:32:12;9.73;;;8.83;;
11847;SDS011;5983;49.966;8.052;2022-08-19T05:34:39;11.77;;;8.63;;
11847;SDS011;5983;49.966;8.052;2022-08-19T05:37:06;15.03;;;9.00;;
11847;SDS011;5983;49.966;8.052;2022-08-19T05:39:35;17.17;;;9.17;;
11847;SDS011;5983;49.966;8.052;2022-08-19T05:42:04;9.20;;;8.13;;
11847;SDS011;5983;49.966;8.052;2022-08-19T05:44:36;12.40;;;8.47;;
11847;SDS011;5983;49.966;8.052;2022-08-19T05:47:09;9.10;;;7.67;;
11847;SDS011;5983;49.966;8.052;2022-08-19T05:49:38;8.73;;;7.47;;
11847;SDS011;5983;49.966;8.052;2022-08-19T05:52:06;8.57;;;7.50;;
11847;SDS011;5983;49.966;8.052;2022-08-19T05:54:36;7.83;;;7.13;;
11847;SDS011;5983;49.966;8.052;2022-08-19T05:57:05;8.03;;;7.20;;
11847;SDS011;5983;49.966;8.052;2022-08-19T05:59:33;8.43;;;7.33;;
11847;SDS011;5983;49.966;8.052;2022-08-19T06:02:02;9.23;;;7.60;;
11847;SDS011;5983;49.966;8.052;2022-08-19T06:04:32;7.80;;;7.00;;
11847;SDS011;5983;49.966;8.052;2022-08-19T06:07:00;9.17;;;7.17;;
11847;SDS011;5983;49.966;8.052;2022-08-19T06:09:27;8.67;;;6.77;;
11847;SDS011;5983;49.966;8.052;2022-08-19T06:11:55;7.23;;;6.47;;
11847;SDS011;5983;49.966;8.052;2022-08-19T06:14:25;8.53;;;7.33;;
11847;SDS011;5983;49.966;8.052;2022-08-19T06:16:55;12.07;;;9.90;;
11847;SDS011;5983;49.966;8.052;2022-08-19T06:19:26;8.87;;;7.97;;
11847;SDS011;5983;49.966;8.052;2022-08-19T06:21:55;8.37;;;6.43;;
11847;SDS011;5983;49.966;8.052;2022-08-19T06:24:24;9.30;;;6.93;;
11847;SDS011;5983;49.966;8.052;2022-08-19T06:26:55;8.67;;;6.17;;
11847;SDS011;5983;49.966;8.052;2022-08-19T06:29:25;6.93;;;6.10;;
11847;SDS011;5983;49.966;8.052;2022-08-19T06:31:56;7.10;;;6.40;;
11847;SDS011;5983;49.966;8.052;2022-08-19T06:34:28;7.93;;;7.13;;
11847;SDS011;5983;49.966;8.052;2022-08-19T06:36:57;7.13;;;6.43;;
11847;SDS011;5983;49.966;8.052;2022-08-19T06:39:27;6.87;;;6.07;;
11847;SDS011;5983;49.966;8.052;2022-08-19T06:41:59;6.73;;;6.10;;
11847;SDS011;5983;49.966;8.052;2022-08-19T06:44:29;7.37;;;6.43;;
11847;SDS011;5983;49.966;8.052;2022-08-19T06:47:00;7.93;;;5.97;;
11847;SDS011;5983;49.966;8.052;2022-08-19T06:49:30;5.93;;;5.37;;
11847;SDS011;5983;49.966;8.052;2022-08-19T06:51:58;6.63;;;5.93;;
11847;SDS011;5983;49.966;8.052;2022-08-19T06:54:26;7.37;;;5.70;;
11847;SDS011;5983;49.966;8.052;2022-08-19T06:56:54;7.27;;;6.13;;
11847;SDS011;5983;49.966;8.052;2022-08-19T06:59:22;7.13;;;6.10;;
11847;SDS011;5983;49.966;8.052;2022-08-19T07:01:53;6.60;;;5.90;;
11847;SDS011;5983;49.966;8.052;2022-08-19T07:04:24;6.73;;;5.73;;
11847;SDS011;5983;49.966;8.052;2022-08-19T07:06:58;7.00;;;5.87;;
11847;SDS011;5983;49.966;8.052;2022-08-19T07:09:28;6.83;;;6.13;;
11847;SDS011;5983;49.966;8.052;2022-08-19T07:11:56;9.40;;;5.50;;
11847;SDS011;5983;49.966;8.052;2022-08-19T07:14:24;5.60;;;5.07;;
11847;SDS011;5983;49.966;8.052;2022-08-19T07:16:54;5.70;;;5.13;;
11847;SDS011;5983;49.966;8.052;2022-08-19T07:19:24;6.00;;;5.33;;
11847;SDS011;5983;49.966;8.052;2022-08-19T07:21:52;7.13;;;5.70;;
11847;SDS011;5983;49.966;8.052;2022-08-19T07:24:22;9.30;;;5.67;;
11847;SDS011;5983;49.966;8.052;2022-08-19T07:26:52;11.17;;;5.70;;
11847;SDS011;5983;49.966;8.052;2022-08-19T07:29:25;8.13;;;5.83;;
11847;SDS011;5983;49.966;8.052;2022-08-19T07:31:58;9.17;;;5.33;;
11847;SDS011;5983;49.966;8.052;2022-08-19T07:34:27;5.47;;;4.97;;
11847;SDS011;5983;49.966;8.052;2022-08-19T07:37:02;6.07;;;5.20;;
11847;SDS011;5983;49.966;8.052;2022-08-19T07:39:32;6.40;;;5.23;;
11847;SDS011;5983;49.966;8.052;2022-08-19T07:42:03;7.60;;;5.07;;
11847;SDS011;5983;49.966;8.052;2022-08-19T07:44:34;8.10;;;5.27;;
11847;SDS011;5983;49.966;8.052;2022-08-19T07:47:03;6.60;;;5.60;;
11847;SDS011;5983;49.966;8.052;2022-08-19T07:49:31;5.87;;;5.03;;
11847;SDS011;5983;49.966;8.052;2022-08-19T07:52:00;7.80;;;4.50;;
11847;SDS011;5983;49.966;8.052;2022-08-19T07:54:33;6.03;;;5.20;;
11847;SDS011;5983;49.966;8.052;2022-08-19T07:57:03;6.30;;;4.90;;
11847;SDS011;5983;49.966;8.052;2022-08-19T07:59:31;5.37;;;4.60;;
11847;SDS011;5983;49.966;8.052;2022-08-19T08:01:59;10.07;;;5.70;;
11847;SDS011;5983;49.966;8.052;2022-08-19T08:04:28;9.60;;;5.73;;
11847;SDS011;5983;49.966;8.052;2022-08-19T08:07:14;9.13;;;5.60;;
11847;SDS011;5983;49.966;8.052;2022-08-19T08:10:00;12.33;;;7.20;;
11847;SDS011;5983;49.966;8.052;2022-08-19T08:12:31;7.83;;;5.80;;
11847;SDS011;5983;49.966;8.052;2022-08-19T08:15:08;7.47;;;5.40;;
11847;SDS011;5983;49.966;8.052;2022-08-19T08:17:41;6.10;;;5.57;;
11847;SDS011;5983;49.966;8.052;2022-08-19T08:20:09;10.03;;;8.67;;
11847;SDS011;5983;49.966;8.052;2022-08-19T08:22:42;10.40;;;7.17;;
11847;SDS011;5983;49.966;8.052;2022-08-19T08:25:28;6.67;;;5.63;;
11847;SDS011;5983;49.966;8.052;2022-08-19T08:27:57;7.90;;;5.40;;
11847;SDS011;5983;49.966;8.052;2022-08-19T08:30:25;7.23;;;5.70;;
11847;SDS011;5983;49.966;8.052;2022-08-19T08:32:53;6.47;;;5.77;;
11847;SDS011;5983;49.966;8.052;2022-08-19T08:35:21;10.47;;;5.80;;
11847;SDS011;5983;49.966;8.052;2022-08-19T08:37:51;7.07;;;6.37;;
11847;SDS011;5983;49.966;8.052;2022-08-19T08:40:21;7.07;;;6.10;;
11847;SDS011;5983;49.966;8.052;2022-08-19T08:42:57;7.67;;;6.27;;
11847;SDS011;5983;49.966;8.052;2022-08-19T08:45:30;9.00;;;5.87;;
11847;SDS011;5983;49.966;8.052;2022-08-19T08:48:02;8.10;;;6.47;;
11847;SDS011;5983;49.966;8.052;2022-08-19T08:50:38;9.50;;;6.53;;
11847;SDS011;5983;49.966;8.052;2022-08-19T08:53:12;6.70;;;6.00;;
11847;SDS011;5983;49.966;8.052;2022-08-19T08:55:43;8.87;;;5.77;;
11847;SDS011;5983;49.966;8.052;2022-08-19T08:58:14;6.87;;;6.20;;
11847;SDS011;5983;49.966;8.052;2022-08-19T09:00:51;12.23;;;6.67;;
11847;SDS011;5983;49.966;8.052;2022-08-19T09:03:20;6.93;;;6.30;;
11847;SDS011;5983;49.966;8.052;2022-08-19T09:05:52;6.47;;;5.87;;
11847;SDS011;5983;49.966;8.052;2022-08-19T09:08:30;6.23;;;5.63;;
11847;SDS011;5983;49.966;8.052;2022-08-19T09:11:15;8.67;;;6.03;;
11847;SDS011;5983;49.966;8.052;2022-08-19T09:14:14;10.37;;;5.77;;
11847;SDS011;5983;49.966;8.052;2022-08-19T09:16:57;8.50;;;5.57;;
11847;SDS011;5983;49.966;8.052;2022-08-19T09:19:25;6.50;;;5.47;;
11847;SDS011;5983;49.966;8.052;2022-08-19T09:21:52;5.77;;;5.03;;
11847;SDS011;5983;49.966;8.052;2022-08-19T09:24:19;6.03;;;4.97;;
11847;SDS011;5983;49.966;8.052;2022-08-19T09:26:46;6.93;;;4.60;;
11847;SDS011;5983;49.966;8.052;2022-08-19T09:29:14;7.03;;;4.40;;
11847;SDS011;5983;49.966;8.052;2022-08-19T09:31:41;4.70;;;4.30;;
11847;SDS011;5983;49.966;8.052;2022-08-19T09:34:08;5.33;;;4.83;;
11847;SDS011;5983;49.966;8.052;2022-08-19T09:36:35;4.83;;;4.00;;
11847;SDS011;5983;49.966;8.052;2022-08-19T09:39:04;3.77;;;3.50;;
11847;SDS011;5983;49.966;8.052;2022-08-19T09:41:32;3.77;;;3.40;;
11847;SDS011;5983;49.966;8.052;2022-08-19T09:43:59;4.13;;;3.50;;
11847;SDS011;5983;49.966;8.052;2022-08-19T09:46:28;8.97;;;4.47;;
11847;SDS011;5983;49.966;8.052;2022-08-19T09:48:57;8.47;;;3.93;;
11847;SDS011;5983;49.966;8.052;2022-08-19T09:51:26;9.27;;;4.73;;
11847;SDS011;5983;49.966;8.052;2022-08-19T09:53:54;5.77;;;4.80;;
11847;SDS011;5983;49.966;8.052;2022-08-19T09:56:26;4.77;;;4.30;;
11847;SDS011;5983;49.966;8.052;2022-08-19T09:58:57;6.87;;;3.93;;
11847;SDS011;5983;49.966;8.052;2022-08-19T10:01:26;4.57;;;4.17;;
11847;SDS011;5983;49.966;8.052;2022-08-19T10:03:57;4.23;;;3.83;;
11847;SDS011;5983;49.966;8.052;2022-08-19T10:06:27;4.73;;;4.17;;
11847;SDS011;5983;49.966;8.052;2022-08-19T10:08:57;5.57;;;3.93;;
11847;SDS011;5983;49.966;8.052;2022-08-19T10:11:25;3.93;;;3.53;;
11847;SDS011;5983;49.966;8.052;2022-08-19T10:13:52;4.03;;;3.70;;
11847;SDS011;5983;49.966;8.052;2022-08-19T10:16:20;4.30;;;3.77;;
11847;SDS011;5983;49.966;8.052;2022-08-19T10:18:50;4.33;;;4.00;;
11847;SDS011;5983;49.966;8.052;2022-08-19T10:21:19;4.17;;;3.77;;
11847;SDS011;5983;49.966;8.052;2022-08-19T10:23:51;4.17;;;3.73;;
11847;SDS011;5983;49.966;8.052;2022-08-19T10:26:21;4.10;;;3.70;;
11847;SDS011;5983;49.966;8.052;2022-08-19T10:28:51;5.17;;;4.37;;
11847;SDS011;5983;49.966;8.052;2022-08-19T10:31:21;4.40;;;4.00;;
11847;SDS011;5983;49.966;8.052;2022-08-19T10:34:01;4.60;;;4.20;;
11847;SDS011;5983;49.966;8.052;2022-08-19T10:36:29;4.87;;;4.23;;
11847;SDS011;5983;49.966;8.052;2022-08-19T10:39:01;4.33;;;3.93;;
11847;SDS011;5983;49.966;8.052;2022-08-19T10:41:33;4.07;;;3.67;;
11847;SDS011;5983;49.966;8.052;2022-08-19T10:44:05;4.20;;;3.70;;
11847;SDS011;5983;49.966;8.052;2022-08-19T10:46:36;4.50;;;4.07;;
11847;SDS011;5983;49.966;8.052;2022-08-19T10:49:08;4.83;;;4.37;;
11847;SDS011;5983;49.966;8.052;2022-08-19T10:51:37;8.50;;;4.50;;
11847;SDS011;5983;49.966;8.052;2022-08-19T10:54:23;6.73;;;4.07;;
11847;SDS011;5983;49.966;8.052;2022-08-19T10:57:11;6.10;;;4.23;;
11847;SDS011;5983;49.966;8.052;2022-08-19T10:59:37;7.97;;;4.67;;
11847;SDS011;5983;49.966;8.052;2022-08-19T11:02:05;7.83;;;4.13;;
11847;SDS011;5983;49.966;8.052;2022-08-19T11:04:36;6.67;;;5.00;;
11847;SDS011;5983;49.966;8.052;2022-08-19T11:07:03;5.93;;;4.40;;
11847;SDS011;5983;49.966;8.052;2022-08-19T11:09:36;6.40;;;4.37;;
11847;SDS011;5983;49.966;8.052;2022-08-19T11:12:07;5.20;;;4.13;;
11847;SDS011;5983;49.966;8.052;2022-08-19T11:14:37;4.73;;;4.10;;
11847;SDS011;5983;49.966;8.052;2022-08-19T11:17:05;4.93;;;4.30;;
11847;SDS011;5983;49.966;8.052;2022-08-19T11:19:33;5.50;;;4.57;;
11847;SDS011;5983;49.966;8.052;2022-08-19T11:22:01;6.80;;;4.17;;
11847;SDS011;5983;49.966;8.052;2022-08-19T11:24:29;4.77;;;4.33;;
11847;SDS011;5983;49.966;8.052;2022-08-19T11:27:00;8.80;;;4.93;;
11847;SDS011;5983;49.966;8.052;2022-08-19T11:29:30;6.90;;;4.60;;
11847;SDS011;5983;49.966;8.052;2022-08-19T11:31:59;5.00;;;4.60;;
11847;SDS011;5983;49.966;8.052;2022-08-19T11:34:30;6.50;;;4.47;;
11847;SDS011;5983;49.966;8.052;2022-08-19T11:36:58;4.83;;;4.33;;
11847;SDS011;5983;49.966;8.052;2022-08-19T11:39:25;5.00;;;4.50;;
11847;SDS011;5983;49.966;8.052;2022-08-19T11:41:57;4.60;;;4.20;;
11847;SDS011;5983;49.966;8.052;2022-08-19T11:44:26;4.87;;;4.27;;
11847;SDS011;5983;49.966;8.052;2022-08-19T11:46:55;5.90;;;4.00;;
11847;SDS011;5983;49.966;8.052;2022-08-19T11:49:22;9.57;;;4.33;;
11847;SDS011;5983;49.966;8.052;2022-08-19T11:51:49;7.93;;;4.97;;
11847;SDS011;5983;49.966;8.052;2022-08-19T11:54:17;4.57;;;3.87;;
11847;SDS011;5983;49.966;8.052;2022-08-19T11:56:44;4.30;;;3.90;;
11847;SDS011;5983;49.966;8.052;2022-08-19T11:59:13;4.70;;;3.60;;
11847;SDS011;5983;49.966;8.052;2022-08-19T12:01:41;3.93;;;3.37;;
11847;SDS011;5983;49.966;8.052;2022-08-19T12:04:08;4.23;;;3.70;;
11847;SDS011;5983;49.966;8.052;2022-08-19T12:06:37;4.77;;;3.30;;
11847;SDS011;5983;49.966;8.052;2022-08-19T12:09:07;4.37;;;3.10;;
11847;SDS011;5983;49.966;8.052;2022-08-19T12:11:38;4.77;;;3.80;;
11847;SDS011;5983;49.966;8.052;2022-08-19T12:14:06;3.83;;;3.37;;
11847;SDS011;5983;49.966;8.052;2022-08-19T12:16:39;3.83;;;2.87;;
11847;SDS011;5983;49.966;8.052;2022-08-19T12:19:09;3.60;;;3.30;;
11847;SDS011;5983;49.966;8.052;2022-08-19T12:21:42;4.30;;;2.70;;
11847;SDS011;5983;49.966;8.052;2022-08-19T12:24:11;3.73;;;2.60;;
11847;SDS011;5983;49.966;8.052;2022-08-19T12:26:49;3.00;;;2.80;;
11847;SDS011;5983;49.966;8.052;2022-08-19T12:29:21;5.03;;;2.40;;
11847;SDS011;5983;49.966;8.052;2022-08-19T12:31:53;2.70;;;2.50;;
11847;SDS011;5983;49.966;8.052;2022-08-19T12:34:26;2.60;;;2.40;;
11847;SDS011;5983;49.966;8.052;2022-08-19T12:36:57;4.53;;;2.20;;
11847;SDS011;5983;49.966;8.052;2022-08-19T12:39:25;4.53;;;2.50;;
11847;SDS011;5983;49.966;8.052;2022-08-19T12:41:53;2.67;;;1.90;;
11847;SDS011;5983;49.966;8.052;2022-08-19T12:44:20;2.87;;;2.13;;
11847;SDS011;5983;49.966;8.052;2022-08-19T12:46:47;2.47;;;2.27;;
11847;SDS011;5983;49.966;8.052;2022-08-19T12:49:15;2.67;;;2.47;;
11847;SDS011;5983;49.966;8.052;2022-08-19T12:51:43;4.30;;;2.40;;
11847;SDS011;5983;49.966;8.052;2022-08-19T12:54:12;4.63;;;2.30;;
11847;SDS011;5983;49.966;8.052;2022-08-19T12:56:39;4.87;;;2.23;;
11847;SDS011;5983;49.966;8.052;2022-08-19T12:59:10;2.90;;;2.20;;
11847;SDS011;5983;49.966;8.052;2022-08-19T13:01:37;4.13;;;2.60;;
11847;SDS011;5983;49.966;8.052;2022-08-19T13:04:04;2.50;;;2.30;;
11847;SDS011;5983;49.966;8.052;2022-08-19T13:06:31;4.27;;;2.63;;
11847;SDS011;5983;49.966;8.052;2022-08-19T13:08:58;3.83;;;2.80;;
11847;SDS011;5983;49.966;8.052;2022-08-19T13:11:24;3.10;;;2.80;;
11847;SDS011;5983;49.966;8.052;2022-08-19T13:13:52;6.37;;;2.60;;
11847;SDS011;5983;49.966;8.052;2022-08-19T13:16:21;3.27;;;2.50;;
11847;SDS011;5983;49.966;8.052;2022-08-19T13:18:48;3.93;;;2.60;;
11847;SDS011;5983;49.966;8.052;2022-08-19T13:21:17;8.83;;;4.67;;
11847;SDS011;5983;49.966;8.052;2022-08-19T13:23:46;4.77;;;3.30;;
11847;SDS011;5983;49.966;8.052;2022-08-19T13:26:13;4.23;;;2.87;;
11847;SDS011;5983;49.966;8.052;2022-08-19T13:28:41;4.13;;;3.00;;
11847;SDS011;5983;49.966;8.052;2022-08-19T13:31:29;3.30;;;2.90;;
11847;SDS011;5983;49.966;8.052;2022-08-19T13:34:16;5.23;;;3.53;;
11847;SDS011;5983;49.966;8.052;2022-08-19T13:36:46;3.03;;;2.73;;
11847;SDS011;5983;49.966;8.052;2022-08-19T13:39:12;3.40;;;3.10;;
11847;SDS011;5983;49.966;8.052;2022-08-19T13:41:42;3.40;;;3.10;;
11847;SDS011;5983;49.966;8.052;2022-08-19T13:44:12;4.37;;;2.97;;
11847;SDS011;5983;49.966;8.052;2022-08-19T13:46:41;7.40;;;3.43;;
11847;SDS011;5983;49.966;8.052;2022-08-19T13:49:10;3.33;;;3.03;;
11847;SDS011;5983;49.966;8.052;2022-08-19T13:51:38;3.33;;;3.03;;
11847;SDS011;5983;49.966;8.052;2022-08-19T13:54:05;5.70;;;3.20;;
11847;SDS011;5983;49.966;8.052;2022-08-19T13:56:33;4.20;;;3.73;;
11847;SDS011;5983;49.966;8.052;2022-08-19T13:59:01;4.63;;;3.87;;
11847;SDS011;5983;49.966;8.052;2022-08-19T14:01:28;4.77;;;3.83;;
11847;SDS011;5983;49.966;8.052;2022-08-19T14:03:56;3.47;;;3.17;;
11847;SDS011;5983;49.966;8.052;2022-08-19T14:06:23;3.67;;;3.37;;
11847;SDS011;5983;49.966;8.052;2022-08-19T14:08:50;3.63;;;3.30;;
11847;SDS011;5983;49.966;8.052;2022-08-19T14:11:17;8.73;;;3.70;;
11847;SDS011;5983;49.966;8.052;2022-08-19T14:13:45;3.30;;;3.00;;
11847;SDS011;5983;49.966;8.052;2022-08-19T14:16:12;4.57;;;3.37;;
11847;SDS011;5983;49.966;8.052;2022-08-19T14:18:41;3.87;;;3.13;;
11847;SDS011;5983;49.966;8.052;2022-08-19T14:21:15;4.47;;;3.70;;
11847;SDS011;5983;49.966;8.052;2022-08-19T14:23:45;5.00;;;4.50;;
11847;SDS011;5983;49.966;8.052;2022-08-19T14:26:13;4.57;;;3.83;;
11847;SDS011;5983;49.966;8.052;2022-08-19T14:28:42;14.87;;;4.93;;
11847;SDS011;5983;49.966;8.052;2022-08-19T14:31:10;11.67;;;4.40;;
11847;SDS011;5983;49.966;8.052;2022-08-19T14:33:41;4.03;;;3.33;;
11847;SDS011;5983;49.966;8.052;2022-08-19T14:36:08;3.80;;;3.50;;
11847;SDS011;5983;49.966;8.052;2022-08-19T14:38:37;4.57;;;3.80;;
11847;SDS011;5983;49.966;8.052;2022-08-19T14:41:08;4.10;;;3.70;;
11847;SDS011;5983;49.966;8.052;2022-08-19T14:43:40;6.67;;;4.03;;
11847;SDS011;5983;49.966;8.052;2022-08-19T14:46:08;5.20;;;4.33;;
11847;SDS011;5983;49.966;8.052;2022-08-19T14:48:35;8.33;;;4.17;;
11847;SDS011;5983;49.966;8.052;2022-08-19T14:51:03;5.57;;;3.97;;
11847;SDS011;5983;49.966;8.052;2022-08-19T14:53:31;4.20;;;3.80;;
11847;SDS011;5983;49.966;8.052;2022-08-19T14:56:00;4.43;;;4.03;;
11847;SDS011;5983;49.966;8.052;2022-08-19T14:58:33;5.23;;;4.50;;
11847;SDS011;5983;49.966;8.052;2022-08-19T15:01:00;8.00;;;3.87;;
11847;SDS011;5983;49.966;8.052;2022-08-19T15:03:28;4.40;;;4.00;;
11847;SDS011;5983;49.966;8.052;2022-08-19T15:05:57;4.20;;;3.80;;